Time;durP1;ratioP1;P1;durP2;ratioP2;P2;SDS_P1;SDS_P2;PMS_P1;PMS_P2;Temp;Humidity;BMP_temperature;BMP_pressure;BME280_temperature;BME280_humidity;BME280_pressure;Samples;Min_cycle;Max_cycle;Signal;HPM_P1;HPM_P2
2022/07/02 00:01:46;;;;;;;5.43;1.98;;;;;;;26.38;41.81;98820.56;5014861;28;20048;-77
2022/07/02 00:04:12;;;;;;;3.60;1.73;;;;;;;26.34;41.78;98814.00;5014504;28;20437;-76
2022/07/02 00:06:37;;;;;;;6.10;2.15;;;;;;;26.32;41.90;98821.44;4998282;28;20084;-77
2022/07/02 00:09:03;;;;;;;4.50;2.00;;;;;;;26.28;42.03;98823.75;5014528;28;20084;-77
2022/07/02 00:11:28;;;;;;;3.80;1.83;;;;;;;26.29;42.23;98819.19;4997683;28;20042;-77
2022/07/02 00:13:54;;;;;;;5.43;1.98;;;;;;;26.26;42.45;98823.13;4997634;28;20049;-77
2022/07/02 00:16:19;;;;;;;3.33;2.05;;;;;;;26.24;42.24;98825.19;5015774;28;20140;-77
2022/07/02 00:18:45;;;;;;;3.92;2.10;;;;;;;26.22;42.20;98821.94;4997223;28;20045;-75
2022/07/02 00:21:10;;;;;;;6.05;1.90;;;;;;;26.15;42.51;98816.59;5014131;28;20109;-75
2022/07/02 00:23:36;;;;;;;4.28;2.03;;;;;;;26.10;42.45;98821.78;5013299;28;20140;-75
2022/07/02 00:26:03;;;;;;;4.47;2.05;;;;;;;26.08;42.74;98820.38;4997469;28;20026;-75
2022/07/02 00:28:30;;;;;;;6.15;2.22;;;;;;;26.06;42.85;98820.59;4997751;28;20041;-75
2022/07/02 00:30:55;;;;;;;5.85;2.17;;;;;;;26.02;43.05;98824.72;4997573;28;20033;-75
2022/07/02 00:33:21;;;;;;;4.82;2.33;;;;;;;26.00;43.37;98818.78;5029780;28;20536;-76
2022/07/02 00:35:47;;;;;;;2.88;1.95;;;;;;;25.97;43.46;98817.34;4997310;28;20029;-75
2022/07/02 00:38:12;;;;;;;5.72;2.22;;;;;;;25.97;43.54;98816.53;5013821;28;20121;-76
2022/07/02 00:40:38;;;;;;;4.95;1.95;;;;;;;25.91;43.51;98809.34;5029107;28;20030;-75
2022/07/02 00:43:04;;;;;;;3.50;2.05;;;;;;;25.90;43.71;98818.38;5030051;28;20054;-76
2022/07/02 00:45:29;;;;;;;5.53;2.22;;;;;;;25.86;43.76;98806.50;5030083;28;20049;-75
2022/07/02 00:47:55;;;;;;;5.75;2.42;;;;;;;25.80;43.56;98803.63;5013255;28;20481;-76
2022/07/02 00:50:23;;;;;;;6.45;1.98;;;;;;;25.80;43.72;98808.16;5013605;28;20044;-76
2022/07/02 00:52:50;;;;;;;3.22;1.80;;;;;;;25.77;43.87;98808.59;5029558;28;20092;-75
2022/07/02 00:55:15;;;;;;;7.45;2.13;;;;;;;25.73;43.99;98802.03;5013217;28;20037;-76
2022/07/02 00:57:41;;;;;;;8.60;2.00;;;;;;;25.73;43.86;98802.03;5014649;28;20401;-76
2022/07/02 01:00:08;;;;;;;3.47;2.30;;;;;;;25.75;43.72;98808.00;5013294;28;20033;-76
2022/07/02 01:02:33;;;;;;;5.78;2.03;;;;;;;25.75;44.12;98813.34;4996583;28;20125;-76
2022/07/02 01:04:58;;;;;;;4.63;2.10;;;;;;;25.78;43.65;98815.59;5013176;28;20037;-76
2022/07/02 01:07:24;;;;;;;5.68;2.30;;;;;;;25.77;43.87;98811.25;5013385;28;20038;-77
2022/07/02 01:12:34;;;;;;;6.15;2.13;;;;;;;25.74;44.01;98811.69;5013128;28;20112;-76
2022/07/02 01:14:59;;;;;;;5.45;2.25;;;;;;;25.76;43.97;98822.97;5012926;28;20026;-76
2022/07/02 01:17:25;;;;;;;4.38;2.10;;;;;;;25.74;44.08;98809.81;5014461;28;20045;-77
2022/07/02 01:19:50;;;;;;;3.60;2.20;;;;;;;25.75;43.93;98802.66;5012987;28;20058;-77
2022/07/02 01:22:31;;;;;;;4.75;2.13;;;;;;;25.78;44.02;98803.03;5029721;28;20034;-76
2022/07/02 01:24:57;;;;;;;6.45;2.30;;;;;;;25.74;43.82;98801.00;5013367;28;20489;-77
2022/07/02 01:27:22;;;;;;;4.65;2.20;;;;;;;25.74;44.14;98792.97;5012841;28;20037;-81
2022/07/02 01:29:48;;;;;;;4.47;2.20;;;;;;;25.77;43.86;98796.03;5012520;28;20480;-76
2022/07/02 01:32:13;;;;;;;4.65;2.35;;;;;;;25.76;43.86;98799.75;5012445;28;20034;-74
2022/07/02 01:34:41;;;;;;;6.18;2.28;;;;;;;25.71;43.78;98802.22;4996123;28;20048;-76
2022/07/02 01:37:08;;;;;;;6.50;2.42;;;;;;;25.68;43.77;98797.34;5012680;28;20048;-76
2022/07/02 01:39:33;;;;;;;7.22;2.15;;;;;;;25.69;43.95;98790.94;4996046;28;20022;-75
2022/07/02 01:41:59;;;;;;;5.15;2.13;;;;;;;25.71;43.62;98796.06;5012213;28;20044;-76
2022/07/02 01:44:24;;;;;;;4.97;2.05;;;;;;;25.74;43.86;98801.00;5012977;28;20080;-76
2022/07/02 01:46:49;;;;;;;4.75;2.20;;;;;;;25.76;43.70;98793.56;4995668;28;20046;-76
2022/07/02 01:49:15;;;;;;;7.32;2.22;;;;;;;25.76;43.66;98786.38;5013574;28;20037;-76
2022/07/02 01:51:41;;;;;;;4.90;2.10;;;;;;;25.74;44.02;98793.78;5013791;28;20041;-76
2022/07/02 01:54:07;;;;;;;2.90;2.10;;;;;;;25.74;44.12;98795.66;5013429;28;20026;-76
2022/07/02 01:56:36;;;;;;;4.57;2.38;;;;;;;25.71;43.53;98793.41;5028630;28;20037;-76
2022/07/02 01:59:01;;;;;;;6.07;2.33;;;;;;;25.75;43.80;98789.28;5013696;28;20037;-76
2022/07/02 02:01:27;;;;;;;5.13;2.20;;;;;;;25.79;43.69;98796.66;4996381;28;20113;-76
2022/07/02 02:03:52;;;;;;;5.30;2.40;;;;;;;25.76;43.83;98794.41;5028708;28;20474;-76
2022/07/02 02:06:18;;;;;;;4.22;2.35;;;;;;;25.73;43.86;98794.84;4995718;28;20029;-78
2022/07/02 02:08:43;;;;;;;2.70;2.08;;;;;;;25.77;43.79;98795.22;5012017;28;20035;-77
2022/07/02 02:11:09;;;;;;;5.53;2.40;;;;;;;25.77;44.01;98795.22;5011680;28;20099;-78
2022/07/02 02:13:34;;;;;;;4.07;2.67;;;;;;;25.72;43.92;98795.88;5011532;28;20493;-75
2022/07/02 02:16:00;;;;;;;5.40;2.67;;;;;;;25.70;43.98;98805.97;4995523;28;20038;-75
2022/07/02 02:18:25;;;;;;;4.70;2.50;;;;;;;25.67;44.29;98803.72;5012125;28;20078;-76
2022/07/02 02:20:51;;;;;;;3.60;2.53;;;;;;;25.67;44.27;98802.91;5011828;28;20473;-79
2022/07/02 02:23:16;;;;;;;6.28;2.40;;;;;;;25.71;44.09;98804.91;5012232;28;20041;-77
2022/07/02 02:25:42;;;;;;;3.58;2.13;;;;;;;25.73;44.15;98802.84;4995652;28;20044;-76
2022/07/02 02:28:07;;;;;;;4.63;2.22;;;;;;;25.74;44.32;98798.31;5011782;28;20034;-76
2022/07/02 02:30:32;;;;;;;5.45;2.60;;;;;;;25.74;44.39;98795.66;5012062;28;20029;-77
2022/07/02 02:32:58;;;;;;;4.03;2.60;;;;;;;25.72;44.55;98798.53;5012105;28;20040;-77
2022/07/02 02:35:23;;;;;;;5.82;2.60;;;;;;;25.72;44.42;98801.22;5028016;28;20488;-79
2022/07/02 02:37:49;;;;;;;6.45;2.80;;;;;;;25.73;44.64;98813.56;4995238;28;20072;-80
2022/07/02 02:40:14;;;;;;;4.63;2.80;;;;;;;25.62;44.88;98803.53;5011645;28;20482;-79
2022/07/02 02:42:40;;;;;;;5.30;2.70;;;;;;;25.62;44.88;98816.91;4994791;28;20041;-80
2022/07/02 02:45:06;;;;;;;5.15;2.90;;;;;;;25.61;45.09;98809.91;5011583;28;20029;-80
2022/07/02 02:47:31;;;;;;;3.65;2.88;;;;;;;25.63;44.95;98807.81;5011742;28;20033;-80
2022/07/02 02:49:57;;;;;;;10.02;2.95;;;;;;;25.60;45.18;98808.25;5011519;28;20022;-80
2022/07/02 02:52:22;;;;;;;4.57;2.85;;;;;;;25.63;45.26;98805.16;5011491;28;20041;-80
2022/07/02 02:54:48;;;;;;;5.18;3.00;;;;;;;25.64;45.22;98812.97;5027917;28;20034;-79
2022/07/02 02:57:13;;;;;;;4.25;2.70;;;;;;;25.63;45.40;98805.16;4995028;28;20037;-79
2022/07/02 02:59:39;;;;;;;7.05;3.00;;;;;;;25.63;45.46;98806.00;5010817;28;20037;-79
2022/07/02 03:02:05;;;;;;;3.85;2.97;;;;;;;25.71;45.18;98804.09;5011733;28;20029;-79
2022/07/02 03:04:30;;;;;;;6.32;3.15;;;;;;;25.79;44.73;98812.69;4998682;28;20516;-78
2022/07/02 03:06:55;;;;;;;4.97;2.65;;;;;;;26.02;44.45;98811.34;4998885;28;20044;-79
2022/07/02 03:09:21;;;;;;;4.75;3.10;;;;;;;26.28;44.12;98813.03;5015526;28;20457;-78
2022/07/02 03:11:46;;;;;;;7.30;3.10;;;;;;;26.53;43.58;98818.41;4998275;28;20049;-81
2022/07/02 03:14:12;;;;;;;3.78;2.83;;;;;;;26.78;43.13;98822.94;4998913;28;20049;-79
2022/07/02 03:16:37;;;;;;;4.47;3.20;;;;;;;27.07;42.68;98824.09;5015565;28;20029;-80
2022/07/02 03:19:03;;;;;;;6.68;3.20;;;;;;;27.36;41.71;98819.06;4998912;28;20378;-79
2022/07/02 03:21:29;;;;;;;8.18;3.50;;;;;;;27.65;41.43;98827.34;5015209;28;20025;-79
2022/07/02 03:23:54;;;;;;;4.18;2.97;;;;;;;27.93;40.81;98816.03;4998773;28;20397;-79
2022/07/02 03:26:20;;;;;;;4.35;3.47;;;;;;;28.25;40.21;98823.06;5014789;28;20034;-79
2022/07/02 03:28:45;;;;;;;6.82;3.10;;;;;;;28.60;39.64;98825.81;5014941;28;20045;-78
2022/07/02 03:31:11;;;;;;;4.95;3.00;;;;;;;28.99;38.92;98833.41;4999104;28;20413;-79
2022/07/02 03:33:38;;;;;;;5.47;3.25;;;;;;;29.39;38.02;98838.84;5014970;28;20037;-80
2022/07/02 03:36:03;;;;;;;5.63;3.00;;;;;;;29.82;37.23;98835.94;5015157;28;20388;-80
2022/07/02 03:38:29;;;;;;;5.32;3.20;;;;;;;30.22;36.34;98833.19;4998482;28;20044;-80
2022/07/02 03:40:54;;;;;;;5.57;3.38;;;;;;;30.61;35.96;98843.25;4998453;28;20033;-79
2022/07/02 03:43:20;;;;;;;4.65;3.30;;;;;;;31.05;35.18;98843.38;5014988;28;20071;-79
2022/07/02 03:45:45;;;;;;;5.90;3.20;;;;;;;31.50;34.35;98842.34;5015071;28;20026;-79
2022/07/02 03:48:11;;;;;;;5.05;3.25;;;;;;;31.89;33.82;98844.94;5030709;28;20049;-79
2022/07/02 03:50:38;;;;;;;9.73;3.03;;;;;;;32.28;33.30;98847.53;5014743;28;20389;-79
2022/07/02 03:53:04;;;;;;;5.28;3.10;;;;;;;32.71;32.93;98863.03;5014076;28;20048;-79
2022/07/02 03:55:30;;;;;;;4.80;3.30;;;;;;;33.04;32.04;98864.59;5014245;28;20033;-79
2022/07/02 03:57:55;;;;;;;8.45;3.40;;;;;;;33.37;31.66;98862.63;5014390;28;20100;-79
2022/07/02 04:00:21;;;;;;;4.43;3.03;;;;;;;33.67;31.13;98867.34;5015168;28;20026;-79
2022/07/02 04:02:46;;;;;;;4.15;2.97;;;;;;;34.01;30.39;98864.19;5014311;28;20041;-78
2022/07/02 04:05:12;;;;;;;13.43;3.50;;;;;;;34.29;30.28;98869.41;5014782;28;20026;-80
2022/07/02 04:07:37;;;;;;;6.43;3.38;;;;;;;34.73;29.78;98863.44;5031165;28;20037;-80
2022/07/02 04:10:03;;;;;;;5.93;3.10;;;;;;;35.14;28.86;98864.19;5014267;28;20504;-79
2022/07/02 04:12:29;;;;;;;5.20;2.90;;;;;;;35.54;28.61;98872.50;4997708;28;20482;-79
2022/07/02 04:14:54;;;;;;;7.72;3.33;;;;;;;35.79;27.81;98865.34;5015349;28;20037;-79
2022/07/02 04:17:20;;;;;;;7.30;2.60;;;;;;;36.14;27.84;98860.78;5017311;28;20419;-79
2022/07/02 04:19:45;;;;;;;6.25;3.00;;;;;;;36.21;27.23;98864.81;5017503;28;20061;-79
2022/07/02 04:22:12;;;;;;;9.43;2.90;;;;;;;36.49;26.72;98862.41;5035121;28;20045;-79
2022/07/02 04:24:37;;;;;;;7.00;3.30;;;;;;;36.89;26.73;98865.06;5017410;28;20505;-80
2022/07/02 04:27:03;;;;;;;7.63;3.45;;;;;;;37.26;25.80;98864.41;5034833;28;20079;-80
2022/07/02 04:29:28;;;;;;;12.38;3.65;;;;;;;37.54;25.84;98866.53;5017823;28;20033;-79
2022/07/02 04:31:54;;;;;;;4.90;3.00;;;;;;;37.95;24.58;98866.78;5033811;28;20099;-81
2022/07/02 04:34:19;;;;;;;10.32;3.22;;;;;;;38.60;24.57;98861.72;5016963;28;20033;-76
2022/07/02 04:36:45;;;;;;;9.55;2.90;;;;;;;39.37;23.50;98869.31;5017218;28;20404;-76
2022/07/02 04:39:10;;;;;;;6.35;2.97;;;;;;;40.10;22.55;98861.19;5033324;28;20477;-76
2022/07/02 04:41:36;;;;;;;4.82;2.70;;;;;;;40.80;21.71;98858.09;5033475;28;20029;-77
2022/07/02 04:44:01;;;;;;;6.45;2.95;;;;;;;41.41;20.82;98870.13;5016909;28;20041;-78
2022/07/02 04:46:27;;;;;;;11.15;2.88;;;;;;;41.99;20.10;98871.97;5033086;28;20042;-78
2022/07/02 04:48:52;;;;;;;7.43;2.78;;;;;;;42.48;19.52;98875.34;5012261;28;20101;-78
2022/07/02 04:51:18;;;;;;;6.45;2.78;;;;;;;42.96;19.07;98876.19;4996600;28;20065;-78
2022/07/02 04:53:44;;;;;;;6.60;2.55;;;;;;;43.37;18.51;98877.47;4980995;28;20037;-80
2022/07/02 04:56:09;;;;;;;10.73;2.57;;;;;;;43.80;18.11;98876.41;4996844;28;20045;-79
2022/07/02 04:58:35;;;;;;;8.20;2.37;;;;;;;44.23;17.56;98878.03;5022392;28;20036;-78
2022/07/02 05:01:00;;;;;;;21.80;3.00;;;;;;;44.53;16.96;98879.81;4998446;28;20046;-78
2022/07/02 05:03:26;;;;;;;5.00;2.33;;;;;;;44.91;16.96;98876.78;5013308;28;20026;-78
2022/07/02 05:05:51;;;;;;;11.43;3.20;;;;;;;45.34;15.95;98882.88;5010954;28;20026;-76
2022/07/02 05:08:20;;;;;;;7.17;2.30;;;;;;;45.73;15.87;98879.75;5012974;28;20026;-78
2022/07/02 05:10:46;;;;;;;6.95;2.80;;;;;;;46.10;15.64;98879.66;5019782;28;20052;-78
2022/07/02 05:13:12;;;;;;;10.40;2.60;;;;;;;46.43;15.20;98882.16;5031417;28;20481;-77
2022/07/02 05:15:39;;;;;;;;;;;;;;;46.58;14.57;98878.66;5013150;28;20125;-78
2022/07/02 05:18:04;;;;;;;6.47;2.58;;;;;;;46.96;13.87;98881.97;5029330;28;20439;-78
2022/07/02 05:20:30;;;;;;;6.97;2.40;;;;;;;47.27;13.63;98885.84;5001900;28;20068;-77
2022/07/02 05:22:56;;;;;;;8.00;2.47;;;;;;;47.54;13.62;98886.06;5012526;28;20088;-78
2022/07/02 05:25:21;;;;;;;7.63;2.60;;;;;;;47.83;13.55;98887.53;4996087;28;20029;-78
2022/07/02 05:27:47;;;;;;;10.33;2.10;;;;;;;48.06;13.38;98892.34;5013101;28;20045;-79
2022/07/02 05:30:12;;;;;;;5.57;2.27;;;;;;;48.33;12.73;98896.84;5012418;28;20485;-78
2022/07/02 05:32:38;;;;;;;4.33;1.90;;;;;;;48.63;12.29;98901.75;5013917;28;20025;-78
2022/07/02 05:35:03;;;;;;;5.33;1.83;;;;;;;49.00;11.85;98903.19;5012639;28;20030;-78
2022/07/02 05:37:29;;;;;;;7.68;2.00;;;;;;;48.98;11.83;98899.97;4996509;28;20088;-79
2022/07/02 05:39:55;;;;;;;5.50;2.10;;;;;;;49.13;11.51;98903.78;4996244;28;20033;-77
2022/07/02 05:42:22;;;;;;;10.65;2.15;;;;;;;49.28;11.90;98908.41;5030004;28;20378;-78
2022/07/02 05:44:47;;;;;;;7.68;1.80;;;;;;;49.47;11.53;98903.88;4999308;28;20041;-79
2022/07/02 05:47:13;;;;;;;10.63;1.90;;;;;;;49.53;11.89;98902.41;4999264;28;20029;-78
2022/07/02 05:49:38;;;;;;;8.73;1.90;;;;;;;49.71;11.21;98909.00;5012362;28;20025;-78
2022/07/02 05:52:04;;;;;;;8.87;2.30;;;;;;;49.90;11.39;98907.28;5018906;28;20037;-78
2022/07/02 05:54:29;;;;;;;4.90;2.10;;;;;;;49.82;11.32;98903.59;5021853;28;20408;-78
2022/07/02 05:56:55;;;;;;;12.90;2.13;;;;;;;49.89;11.36;98914.00;5032164;28;20110;-78
2022/07/02 05:59:22;;;;;;;9.07;2.57;;;;;;;49.86;11.32;98914.75;5033045;28;20268;-81
2022/07/02 06:01:48;;;;;;;6.20;1.95;;;;;;;49.98;11.15;98914.53;5015206;28;20103;-79
2022/07/02 06:04:13;;;;;;;8.63;1.92;;;;;;;49.92;10.84;98913.25;5015196;28;20493;-80
2022/07/02 06:09:22;;;;;;;5.03;1.83;;;;;;;49.98;10.82;98920.06;5031687;28;20290;-79
2022/07/02 06:11:48;;;;;;;5.97;1.93;;;;;;;49.92;10.93;98918.81;5015461;28;20492;-79
2022/07/02 06:14:13;;;;;;;3.90;1.87;;;;;;;49.88;11.07;98924.31;5015013;28;20061;-73
2022/07/02 06:16:39;;;;;;;8.07;1.83;;;;;;;49.85;10.92;98919.53;5031548;28;20033;-72
2022/07/02 06:19:06;;;;;;;7.38;2.00;;;;;;;49.83;11.10;98924.59;5032379;28;20044;-72
2022/07/02 06:21:32;;;;;;;6.70;2.10;;;;;;;49.89;10.96;98925.91;5011919;28;20053;-72
2022/07/02 06:23:58;;;;;;;3.05;1.30;;;;;;;49.55;12.61;98925.00;5027168;28;20060;-72
2022/07/02 06:26:23;;;;;;;12.53;1.87;;;;;;;49.12;12.92;98919.56;5009291;28;20405;-72
2022/07/02 06:28:49;;;;;;;9.30;1.80;;;;;;;48.99;13.17;98918.19;4988413;28;20280;-72
2022/07/02 06:31:14;;;;;;;14.37;2.10;;;;;;;48.84;12.94;98923.50;5019635;28;20029;-72
2022/07/02 06:33:41;;;;;;;13.33;2.00;;;;;;;48.71;13.01;98917.31;5020213;28;20057;-72
2022/07/02 06:36:10;;;;;;;8.50;2.10;;;;;;;48.69;13.08;98924.38;5002564;28;20042;-73
2022/07/02 06:38:37;;;;;;;7.22;2.00;;;;;;;48.67;13.21;98922.00;5003327;28;20878;-75
2022/07/02 06:42:18;;;;;;;9.32;2.15;;;;;;;48.65;12.61;98927.09;5002032;28;20034;-74
2022/07/02 06:43:48;;;;;;;7.43;2.25;;;;;;;48.48;12.82;98922.03;5006656;28;20033;-73
2022/07/02 06:46:14;;;;;;;5.60;2.17;;;;;;;48.33;13.20;98927.28;5018553;28;20037;-73
2022/07/02 06:48:39;;;;;;;10.73;2.20;;;;;;;48.21;13.02;98924.69;5018989;28;20041;-74
2022/07/02 06:51:08;;;;;;;8.60;2.40;;;;;;;48.11;12.49;98916.94;5021986;28;20037;-75
2022/07/02 06:53:34;;;;;;;12.48;2.30;;;;;;;47.77;14.02;98916.63;5027271;28;20030;-75
2022/07/02 06:55:59;;;;;;;5.60;2.20;;;;;;;47.59;13.78;98919.78;5018452;28;20029;-75
2022/07/02 06:58:25;;;;;;;9.87;2.27;;;;;;;47.53;14.65;98924.00;5019970;28;20037;-74
2022/07/02 07:00:50;;;;;;;8.53;2.50;;;;;;;47.47;14.42;98922.66;5017093;28;20579;-74
2022/07/02 07:03:16;;;;;;;8.37;2.47;;;;;;;47.42;13.70;98920.19;5020119;28;20029;-75
2022/07/02 07:05:46;;;;;;;9.47;2.90;;;;;;;47.33;13.72;98920.38;5020522;28;20029;-73
2022/07/02 07:08:12;;;;;;;13.38;2.63;;;;;;;47.10;13.65;98918.25;5019690;28;20026;-74
2022/07/02 07:10:37;;;;;;;5.88;2.53;;;;;;;47.02;13.76;98918.41;5021505;28;20026;-73
2022/07/02 07:13:03;;;;;;;9.70;2.57;;;;;;;46.94;13.66;98920.22;5017777;28;20497;-74
2022/07/02 07:15:28;;;;;;;7.90;2.80;;;;;;;46.83;13.74;98930.13;5003010;28;20033;-73
2022/07/02 07:17:54;;;;;;;6.30;2.60;;;;;;;46.73;14.14;98937.00;5018733;28;20025;-74
2022/07/02 07:20:26;;;;;;;10.37;2.80;;;;;;;46.63;13.95;98934.75;5019791;28;20033;-73
2022/07/02 07:22:52;;;;;;;10.52;2.50;;;;;;;46.51;14.60;98935.59;5019841;28;20530;-72
2022/07/02 07:25:18;;;;;;;11.40;3.25;;;;;;;46.37;14.28;98931.31;5019958;28;20033;-73
2022/07/02 07:27:43;;;;;;;7.63;2.70;;;;;;;46.25;14.12;98934.09;5017520;28;20155;-74
2022/07/02 07:30:09;;;;;;;6.83;2.70;;;;;;;46.10;14.95;98926.53;4984297;28;20038;-74
2022/07/02 07:32:35;;;;;;;9.27;2.53;;;;;;;45.95;16.33;98939.94;5018996;28;20112;-73
2022/07/02 07:35:00;;;;;;;9.23;2.70;;;;;;;45.77;15.96;98931.13;5019840;28;20416;-75
2022/07/02 07:37:26;;;;;;;7.93;2.60;;;;;;;45.69;15.72;98934.81;5001703;28;20092;-71
2022/07/02 07:39:51;;;;;;;9.70;2.90;;;;;;;45.58;15.16;98928.97;5022368;28;20036;-71
2022/07/02 07:42:17;;;;;;;7.03;2.63;;;;;;;45.43;15.24;98930.44;5003157;28;20042;-75
2022/07/02 07:44:42;;;;;;;9.63;2.80;;;;;;;45.23;15.55;98934.94;5001177;28;20018;-75
2022/07/02 07:47:08;;;;;;;8.90;2.50;;;;;;;45.03;15.62;98938.59;5002631;28;20101;-75
2022/07/02 07:49:33;;;;;;;11.63;2.60;;;;;;;44.94;16.10;98938.66;5020664;28;20535;-74
2022/07/02 07:51:59;;;;;;;11.70;2.67;;;;;;;44.79;15.71;98940.13;5020708;28;20103;-75
2022/07/02 07:54:24;;;;;;;8.73;2.70;;;;;;;44.76;16.14;98933.34;4986798;28;20096;-76
2022/07/02 07:56:50;;;;;;;11.00;2.67;;;;;;;44.72;16.44;98940.66;5019855;28;20032;-74
2022/07/02 07:59:15;;;;;;;9.83;3.03;;;;;;;44.71;16.38;98938.25;4995975;28;20025;-76
2022/07/02 08:01:41;;;;;;;5.87;2.60;;;;;;;44.59;16.14;98939.03;5013484;28;20508;-73
2022/07/02 08:04:07;;;;;;;10.13;3.20;;;;;;;44.38;16.33;98939.06;5031059;28;20021;-73
2022/07/02 08:06:32;;;;;;;10.53;2.80;;;;;;;44.26;16.73;98940.59;5016842;28;20094;-74
2022/07/02 08:08:59;;;;;;;10.00;2.70;;;;;;;44.22;16.58;98939.66;5016475;28;20069;-74
2022/07/02 08:11:25;;;;;;;9.98;2.70;;;;;;;44.14;16.63;98932.28;5032900;28;20410;-74
2022/07/02 08:13:51;;;;;;;9.23;2.40;;;;;;;44.11;16.89;98940.38;5032664;28;20061;-74
2022/07/02 08:16:16;;;;;;;5.10;2.50;;;;;;;43.94;16.96;98933.88;5032851;28;20076;-74
2022/07/02 08:18:42;;;;;;;4.40;2.40;;;;;;;43.88;17.00;98933.25;5032665;28;20550;-73
2022/07/02 08:21:07;;;;;;;9.67;2.70;;;;;;;43.83;17.12;98933.47;5033705;28;20455;-73
2022/07/02 08:23:33;;;;;;;6.63;2.23;;;;;;;43.77;17.34;98931.22;5033322;28;20389;-77
2022/07/02 08:25:58;;;;;;;9.47;2.53;;;;;;;43.73;17.26;98931.09;5032393;28;20060;-75
2022/07/02 08:28:24;;;;;;;6.77;2.13;;;;;;;43.62;17.50;98930.69;5034035;28;20041;-75
2022/07/02 08:30:49;;;;;;;7.67;2.60;;;;;;;43.54;18.16;98939.78;5032870;28;20029;-74
2022/07/02 08:33:16;;;;;;;8.40;2.50;;;;;;;43.32;17.45;98946.34;5033836;28;20029;-74
2022/07/02 08:35:42;;;;;;;10.02;2.53;;;;;;;43.16;18.21;98932.34;5033221;28;20076;-75
2022/07/02 08:38:08;;;;;;;10.45;2.55;;;;;;;43.07;17.93;98943.34;5034869;28;20042;-76
2022/07/02 08:40:33;;;;;;;6.73;3.10;;;;;;;42.81;18.34;98935.16;5017246;28;20424;-82
2022/07/02 08:42:59;;;;;;;7.57;2.80;;;;;;;42.52;18.59;98931.16;5018169;28;20488;-85
2022/07/02 08:45:25;;;;;;;13.00;2.80;;;;;;;42.43;19.10;98933.09;5000784;28;20142;-87
2022/07/02 08:47:54;;;;;;;6.60;2.60;;;;;;;42.38;18.72;98936.81;5017508;28;20469;-85
2022/07/02 08:50:20;;;;;;;6.00;2.38;;;;;;;42.24;18.50;98937.00;5000694;28;20037;-87
2022/07/02 08:52:45;;;;;;;10.68;2.60;;;;;;;42.18;18.34;98935.56;5033880;28;20163;-85
2022/07/02 08:55:11;;;;;;;5.03;2.23;;;;;;;42.06;18.82;98943.59;5016784;28;20033;-86
2022/07/02 08:57:37;;;;;;;9.07;2.50;;;;;;;41.98;18.69;98936.16;5033098;28;20100;-86
2022/07/02 09:00:03;;;;;;;5.80;2.25;;;;;;;41.75;18.84;98939.84;5016691;28;20030;-86
2022/07/02 09:02:29;;;;;;;3.67;2.30;;;;;;;41.69;18.29;98941.09;5033281;28;20048;-85
2022/07/02 09:04:54;;;;;;;4.55;2.30;;;;;;;41.57;18.73;98944.44;5016899;28;20409;-86
2022/07/02 09:07:20;;;;;;;6.70;2.35;;;;;;;41.00;19.35;98941.63;5000595;28;20523;-85
2022/07/02 09:09:45;;;;;;;5.70;2.30;;;;;;;41.02;19.47;98934.72;5034869;28;20047;-86
2022/07/02 09:12:14;;;;;;;8.75;2.30;;;;;;;40.72;19.19;98940.94;5000080;28;20076;-86
2022/07/02 09:14:41;;;;;;;6.53;2.20;;;;;;;40.57;19.81;98940.22;5016967;28;20057;-86
2022/07/02 09:17:07;;;;;;;5.00;2.30;;;;;;;40.45;19.68;98932.56;5016898;28;20394;-86
2022/07/02 09:19:33;;;;;;;7.22;2.35;;;;;;;40.47;19.67;98933.06;5033242;28;20125;-85
2022/07/02 09:21:59;;;;;;;7.78;2.40;;;;;;;40.49;19.74;98941.75;5024986;28;20033;-86
2022/07/02 09:24:31;;;;;;;3.80;1.90;;;;;;;40.19;20.12;98934.28;5038759;28;20095;-86
2022/07/02 09:27:04;;;;;;;6.65;2.40;;;;;;;39.78;20.68;98942.22;5017441;28;20045;-84
2022/07/02 09:29:40;;;;;;;10.73;1.90;;;;;;;39.54;21.00;98931.53;5032977;28;20029;-87
2022/07/02 09:32:06;;;;;;;8.38;2.25;;;;;;;39.61;21.37;98931.13;5000283;28;20040;-85
2022/07/02 09:34:31;;;;;;;3.70;1.90;;;;;;;39.70;21.37;98933.94;5032774;28;20029;-87
2022/07/02 09:36:57;;;;;;;7.22;2.30;;;;;;;39.69;21.38;98937.78;5032742;28;20041;-87
2022/07/02 09:39:27;;;;;;;9.07;2.15;;;;;;;39.51;21.63;98940.28;4999693;28;20477;-87
2022/07/02 09:41:52;;;;;;;4.53;2.10;;;;;;;39.35;21.83;98933.53;5032752;28;20392;-84
2022/07/02 09:44:18;;;;;;;7.82;2.20;;;;;;;39.27;22.09;98935.03;5032753;28;20025;-86
2022/07/02 09:46:44;;;;;;;7.25;2.25;;;;;;;39.31;21.72;98933.31;5016327;28;20033;-86
2022/07/02 09:49:11;;;;;;;5.75;2.33;;;;;;;39.18;21.83;98928.66;5032164;28;20040;-86
2022/07/02 09:51:46;;;;;;;;;;;;;;;39.02;21.81;98928.13;5032804;28;20025;-86
2022/07/02 09:54:17;;;;;;;5.18;2.17;;;;;;;38.89;21.80;98919.59;5031852;28;19913;-83
2022/07/02 09:56:50;;;;;;;4.18;2.10;;;;;;;38.93;21.82;98919.81;4999340;28;20034;-85
2022/07/02 09:59:15;;;;;;;4.47;2.20;;;;;;;38.87;21.84;98921.00;4999030;28;20500;-86
2022/07/02 10:01:44;;;;;;;6.45;2.25;;;;;;;38.91;21.29;98924.75;5033602;28;20037;-85
2022/07/02 10:04:09;;;;;;;5.57;2.20;;;;;;;38.68;21.68;98927.34;4999824;28;20110;-85
2022/07/02 10:06:35;;;;;;;6.40;2.13;;;;;;;38.54;21.78;98924.53;5033920;28;20041;-87
2022/07/02 10:09:00;;;;;;;5.90;2.30;;;;;;;38.55;21.51;98922.59;5033582;28;20120;-86
2022/07/02 10:11:26;;;;;;;4.90;2.30;;;;;;;38.50;21.59;98930.88;5031723;28;20044;-87
2022/07/02 10:13:51;;;;;;;6.63;2.38;;;;;;;38.40;21.87;98920.94;5015616;28;20053;-85
2022/07/02 10:16:19;;;;;;;4.05;2.05;;;;;;;38.31;21.71;98912.63;5031950;28;20038;-87
2022/07/02 10:18:45;;;;;;;7.63;2.60;;;;;;;38.24;22.40;98920.38;5033269;28;20033;-87
2022/07/02 10:21:11;;;;;;;4.07;2.28;;;;;;;38.26;22.31;98903.72;5015472;28;20033;-86
2022/07/02 10:23:38;;;;;;;5.40;2.45;;;;;;;38.22;22.56;98898.03;4998989;28;20029;-86
2022/07/02 10:26:03;;;;;;;5.03;2.45;;;;;;;38.16;22.69;98908.22;5015572;28;20070;-86
2022/07/02 10:28:29;;;;;;;5.35;2.50;;;;;;;38.09;22.39;98912.38;5016215;28;20045;-88
2022/07/02 10:30:54;;;;;;;7.00;2.58;;;;;;;38.03;22.38;98908.13;4999008;28;20057;-86
2022/07/02 10:33:32;;;;;;;9.07;2.63;;;;;;;38.08;22.28;98908.88;4998722;28;20132;-86
2022/07/02 10:35:59;;;;;;;8.77;2.60;;;;;;;38.07;22.45;98909.97;5032186;28;20025;-87
2022/07/02 10:38:31;;;;;;;9.13;2.60;;;;;;;37.97;22.28;98912.81;4999258;28;20032;-86
2022/07/02 10:40:57;;;;;;;6.57;2.50;;;;;;;37.94;22.21;98888.88;5015339;28;20272;-87
2022/07/02 10:43:22;;;;;;;5.05;2.60;;;;;;;37.66;22.56;98894.94;5031787;28;20484;-85
2022/07/02 10:45:48;;;;;;;10.65;2.60;;;;;;;37.72;22.59;98895.72;5031408;28;20021;-87
2022/07/02 10:48:13;;;;;;;8.73;2.75;;;;;;;37.55;22.55;98906.28;5032692;28;20029;-85
2022/07/02 10:50:39;;;;;;;5.35;2.53;;;;;;;37.47;22.93;98896.84;5015394;28;20476;-87
2022/07/02 10:53:17;;;;;;;6.33;2.43;;;;;;;37.37;23.05;98895.06;5032706;28;20091;-87
2022/07/02 10:56:04;;;;;;;9.48;2.60;;;;;;;37.36;23.29;98889.91;5031053;28;20087;-86
2022/07/02 10:58:31;;;;;;;9.60;2.53;;;;;;;37.21;23.48;98896.28;5030645;28;20496;-87
2022/07/02 11:01:07;;;;;;;;;;;;;;;37.11;23.40;98889.06;5015444;28;20028;-86
2022/07/02 11:03:33;;;;;;;6.05;2.70;;;;;;;37.11;23.28;98897.22;5032995;28;19917;-85
2022/07/02 11:06:06;;;;;;;10.77;2.30;;;;;;;37.08;23.36;98898.59;4998465;28;20037;-86
2022/07/02 11:08:44;;;;;;;4.90;2.50;;;;;;;36.97;23.58;98896.28;5015218;28;20108;-86
2022/07/02 11:11:32;;;;;;;7.32;2.53;;;;;;;36.90;23.55;98883.81;5031362;28;20484;-84
2022/07/02 11:13:58;;;;;;;5.03;2.55;;;;;;;36.89;23.71;98895.00;5022372;28;20492;-85
2022/07/02 11:16:24;;;;;;;6.88;2.55;;;;;;;36.82;24.09;98894.53;5032235;28;20075;-88
2022/07/02 11:18:50;;;;;;;5.13;2.63;;;;;;;36.78;24.41;98893.47;5030976;28;20036;-87
2022/07/02 11:21:16;;;;;;;7.07;2.67;;;;;;;36.83;24.17;98893.41;5032590;28;20271;-88
2022/07/02 11:23:41;;;;;;;6.22;2.42;;;;;;;36.77;24.08;98892.66;4999308;28;20473;-87
2022/07/02 11:26:07;;;;;;;7.45;2.67;;;;;;;36.66;24.45;98888.38;5018496;28;20087;-87
2022/07/02 11:28:36;;;;;;;9.30;2.83;;;;;;;36.60;24.33;98894.97;5018770;28;20224;-86
2022/07/02 11:31:04;;;;;;;6.95;2.70;;;;;;;36.54;24.04;98892.28;5034684;28;20065;-87
2022/07/02 11:33:33;;;;;;;5.82;2.47;;;;;;;36.40;23.96;98885.88;5018774;28;20025;-87
2022/07/02 11:35:58;;;;;;;5.03;2.70;;;;;;;36.27;24.08;98883.81;5018654;28;20125;-80